Terminal Aerodrome Forecast
Issued by NWS Birmingham, AL

Home | Current Version | Previous Version | Text Only | Print | Product List | Glossary On
Versions: 1 2 3 4 5 6 7 8 9 10 11 12 13 14 15 16 17 18 19 20 21
000
FTUS44 KBMX 220500
TAFBHM
TAF
KBHM 220524Z 2206/2306 10003KT P6SM BKN080
      TEMPO 2209/2212 BKN025
     FM221200 10005KT P6SM VCSH BKN025
     FM221700 10006KT P6SM VCSH BKN035=

USA.gov is the U.S. government's official web portal to all federal, state and local government web resources and services.